createdAt,value
2022-08-26T00:04:23.895Z,20.88
2022-08-26T00:09:27.010Z,20.76
2022-08-26T00:14:31.016Z,20.79
2022-08-26T00:19:33.662Z,20.57
2022-08-26T00:24:36.244Z,20.50
2022-08-26T00:29:38.731Z,20.41
2022-08-26T00:34:41.787Z,20.51
2022-08-26T00:39:44.185Z,20.42
2022-08-26T00:44:48.508Z,20.41
2022-08-26T00:49:53.299Z,20.26
2022-08-26T00:55:01.451Z,20.52
2022-08-26T01:00:10.286Z,20.26
2022-08-26T01:05:13.058Z,20.50
2022-08-26T01:10:19.304Z,20.69
2022-08-26T01:15:25.095Z,20.89
2022-08-26T01:20:49.041Z,20.91
2022-08-26T01:25:55.238Z,20.99
2022-08-26T01:30:58.799Z,20.94
2022-08-26T01:36:01.554Z,20.98
2022-08-26T01:41:16.067Z,20.87
2022-08-26T01:46:19.728Z,20.94
2022-08-26T01:51:23.461Z,20.70
2022-08-26T01:56:25.899Z,20.78
2022-08-26T02:01:36.324Z,20.80
2022-08-26T02:06:39.579Z,20.76
2022-08-26T02:11:42.259Z,20.91
2022-08-26T02:16:46.741Z,20.98
2022-08-26T02:21:51.222Z,20.99
2022-08-26T02:26:54.767Z,20.97
2022-08-26T02:31:57.285Z,20.65
2022-08-26T02:37:01.307Z,20.68
2022-08-26T02:42:05.498Z,20.64
2022-08-26T02:47:08.775Z,20.35
2022-08-26T02:52:12.662Z,20.40
2022-08-26T02:57:15.281Z,20.74
2022-08-26T03:02:18.053Z,20.84
2022-08-26T03:07:20.696Z,20.68
2022-08-26T03:12:23.800Z,20.38
2022-08-26T03:17:28.266Z,20.49
2022-08-26T03:22:30.927Z,20.29
2022-08-26T03:27:33.689Z,20.40
2022-08-26T03:32:36.075Z,20.47
2022-08-26T03:37:40.368Z,20.60
2022-08-26T03:42:44.392Z,20.55
2022-08-26T03:47:48.182Z,20.45
2022-08-26T03:52:53.224Z,20.38
2022-08-26T03:57:57.089Z,20.47
2022-08-26T04:03:00.203Z,20.33
2022-08-26T04:08:02.906Z,20.47
2022-08-26T04:13:05.307Z,20.47
2022-08-26T04:18:07.897Z,20.23
2022-08-26T04:23:10.517Z,20.40
2022-08-26T04:28:14.234Z,20.28
2022-08-26T04:33:16.811Z,20.37
2022-08-26T04:38:34.983Z,20.40
2022-08-26T04:43:38.250Z,20.51
2022-08-26T04:48:41.446Z,20.50
2022-08-26T04:53:44.326Z,20.38
2022-08-26T04:58:47.251Z,20.87
2022-08-26T05:03:50.021Z,21.17
2022-08-26T05:08:54.328Z,21.53
2022-08-26T05:14:01.639Z,21.88
2022-08-26T05:19:07.119Z,21.46
2022-08-26T05:24:14.003Z,21.36
2022-08-26T05:29:17.309Z,22.02
2022-08-26T05:34:23.929Z,23.69
2022-08-26T05:39:33.881Z,24.58
2022-08-26T05:44:53.705Z,25.00
2022-08-26T05:49:58.758Z,25.06
2022-08-26T05:55:01.706Z,25.49
2022-08-26T06:00:05.649Z,25.83
2022-08-26T06:05:14.639Z,26.10
2022-08-26T06:10:33.606Z,26.05
2022-08-26T06:15:40.715Z,26.42
2022-08-26T06:20:56.857Z,26.62
2022-08-26T06:26:00.251Z,27.00
2022-08-26T06:31:03.441Z,26.92
2022-08-26T06:36:06.983Z,27.24
2022-08-26T06:41:12.185Z,27.39
2022-08-26T06:46:19.806Z,27.65
2022-08-26T06:51:26.204Z,27.60
2022-08-26T06:56:41.038Z,27.34
2022-08-26T07:01:45.116Z,27.18
2022-08-26T07:06:49.465Z,27.18
2022-08-26T07:11:52.561Z,27.34
2022-08-26T07:16:55.653Z,27.33
2022-08-26T07:21:58.462Z,27.51
2022-08-26T07:27:05.799Z,27.58
2022-08-26T07:32:09.959Z,27.76
2022-08-26T07:37:12.447Z,27.78
2022-08-26T07:42:16.923Z,27.97
2022-08-26T07:47:25.840Z,27.88
2022-08-26T07:52:30.498Z,28.06
2022-08-26T07:57:34.692Z,28.22
2022-08-26T08:02:37.303Z,28.44
2022-08-26T08:07:44.880Z,28.65
2022-08-26T08:12:48.369Z,28.73
2022-08-26T08:17:51.689Z,28.83
2022-08-26T08:22:55.162Z,28.88
2022-08-26T08:27:57.672Z,29.07
2022-08-26T08:33:00.565Z,29.36
2022-08-26T08:38:04.178Z,29.25
2022-08-26T08:43:28.357Z,29.65
2022-08-26T08:48:34.706Z,29.53
2022-08-26T08:53:41.793Z,29.82
2022-08-26T08:59:08.839Z,29.75
2022-08-26T09:04:42.647Z,30.18
2022-08-26T09:10:08.140Z,29.95
2022-08-26T09:15:21.667Z,30.23
2022-08-26T09:20:41.908Z,30.11
2022-08-26T09:25:49.610Z,30.69
2022-08-26T09:31:10.628Z,30.49
2022-08-26T09:36:24.963Z,30.56
2022-08-26T09:41:31.981Z,30.61
2022-08-26T09:46:34.646Z,30.73
2022-08-26T09:51:37.654Z,31.05
2022-08-26T09:56:40.537Z,31.05
2022-08-26T10:01:44.934Z,30.79
2022-08-26T10:06:57.062Z,30.78
2022-08-26T10:12:04.783Z,31.10
2022-08-26T10:17:15.849Z,31.16
2022-08-26T10:22:36.008Z,31.03
2022-08-26T10:27:53.413Z,31.07
2022-08-26T10:33:06.243Z,31.15
2022-08-26T10:38:12.855Z,31.50
2022-08-26T10:43:25.722Z,31.12
2022-08-26T10:48:38.505Z,31.26
2022-08-26T10:53:51.617Z,31.41
2022-08-26T10:58:59.517Z,31.50
2022-08-26T11:04:14.132Z,31.60
2022-08-26T11:09:47.578Z,31.73
2022-08-26T11:14:56.115Z,31.80
2022-08-26T11:20:09.159Z,31.89
2022-08-26T11:25:18.714Z,32.00
2022-08-26T11:30:21.261Z,31.79
2022-08-26T11:35:37.281Z,32.13
2022-08-26T11:40:42.106Z,31.96
2022-08-26T11:45:59.703Z,32.37
2022-08-26T11:51:07.338Z,31.80
2022-08-26T11:56:28.877Z,32.19
2022-08-26T12:01:36.547Z,32.52
2022-08-26T12:06:46.667Z,32.41
2022-08-26T12:11:49.199Z,32.85
2022-08-26T12:16:56.300Z,32.80
2022-08-26T12:22:21.438Z,32.81
2022-08-26T12:27:26.707Z,33.09
2022-08-26T12:32:35.188Z,32.82
2022-08-26T12:37:41.172Z,33.06
2022-08-26T12:42:47.017Z,33.12
2022-08-26T12:47:55.931Z,33.71
2022-08-26T12:53:09.934Z,33.64
2022-08-26T12:58:16.548Z,33.58
2022-08-26T13:03:46.227Z,33.68
2022-08-26T13:08:54.361Z,33.50
2022-08-26T13:14:00.502Z,33.41
2022-08-26T13:19:10.209Z,33.18
2022-08-26T13:24:21.144Z,33.09
2022-08-26T13:29:23.875Z,33.27
2022-08-26T13:34:27.980Z,33.11
2022-08-26T13:39:30.584Z,32.97
2022-08-26T13:44:33.719Z,33.26
2022-08-26T13:49:36.625Z,33.10
2022-08-26T13:54:39.481Z,33.30
2022-08-26T13:59:42.016Z,33.07
2022-08-26T14:04:44.631Z,33.16
2022-08-26T14:09:47.354Z,33.00
2022-08-26T14:14:50.274Z,33.15
2022-08-26T14:19:53.898Z,33.17
2022-08-26T14:24:56.859Z,33.12
2022-08-26T14:29:59.704Z,33.12
2022-08-26T14:35:02.780Z,33.04
2022-08-26T14:40:06.469Z,33.07
2022-08-26T14:45:11.587Z,32.97
2022-08-26T14:50:17.481Z,32.79
2022-08-26T14:55:22.875Z,32.74
2022-08-26T15:00:25.893Z,32.81
2022-08-26T15:05:28.523Z,32.79
2022-08-26T15:10:31.140Z,32.77
2022-08-26T15:15:34.949Z,32.56
2022-08-26T15:20:37.657Z,32.35
2022-08-26T15:25:40.267Z,32.38
2022-08-26T15:30:43.380Z,32.26
2022-08-26T15:35:46.146Z,32.16
2022-08-26T15:40:48.796Z,32.02
2022-08-26T15:45:51.484Z,32.00
2022-08-26T15:50:55.168Z,31.84
2022-08-26T15:55:59.525Z,31.91
2022-08-26T16:01:02.276Z,31.73
2022-08-26T16:06:04.956Z,31.75
2022-08-26T16:11:07.597Z,31.60
2022-08-26T16:16:10.299Z,31.47
2022-08-26T16:21:17.908Z,31.43
2022-08-26T16:26:30.110Z,31.32
2022-08-26T16:31:33.058Z,31.14
2022-08-26T16:36:38.078Z,30.97
2022-08-26T16:41:40.795Z,30.79
2022-08-26T16:46:43.372Z,30.50
2022-08-26T16:51:45.948Z,30.37
2022-08-26T16:56:48.437Z,30.04
2022-08-26T17:01:51.139Z,29.61
2022-08-26T17:06:53.792Z,29.21
2022-08-26T17:11:56.489Z,28.76
2022-08-26T17:16:59.508Z,28.20
2022-08-26T17:22:02.087Z,27.76
2022-08-26T17:27:08.646Z,27.45
2022-08-26T17:32:11.554Z,27.09
2022-08-26T17:37:14.251Z,26.73
2022-08-26T17:42:16.712Z,26.42
2022-08-26T17:47:19.152Z,26.29
2022-08-26T17:52:21.741Z,26.40
2022-08-26T17:57:25.231Z,26.29
2022-08-26T18:07:33.705Z,25.59
2022-08-26T18:12:46.462Z,25.47
2022-08-26T18:17:49.527Z,25.36
2022-08-26T18:22:54.967Z,25.10
2022-08-26T18:27:57.337Z,25.07
2022-08-26T18:32:59.817Z,24.99
2022-08-26T18:38:10.514Z,25.10
2022-08-26T18:43:13.962Z,24.75
2022-08-26T18:48:16.877Z,24.61
2022-08-26T18:53:19.434Z,24.46
2022-08-26T18:58:22.558Z,24.39
2022-08-26T19:03:25.337Z,24.40
2022-08-26T19:08:28.080Z,24.70
2022-08-26T19:13:30.636Z,24.75
2022-08-26T19:18:33.109Z,24.73
2022-08-26T19:23:37.065Z,24.63
2022-08-26T19:28:40.928Z,24.70
2022-08-26T19:33:45.522Z,24.92
2022-08-26T19:38:48.466Z,24.64
2022-08-26T19:43:52.370Z,24.63
2022-08-26T19:48:55.828Z,24.52
2022-08-26T19:53:59.925Z,24.59
2022-08-26T19:59:02.479Z,24.71
2022-08-26T20:04:05.060Z,24.87
2022-08-26T20:09:10.526Z,24.77
2022-08-26T20:14:12.992Z,24.95
2022-08-26T20:19:52.231Z,25.12
2022-08-26T20:24:54.705Z,25.13
2022-08-26T20:29:58.142Z,25.06
2022-08-26T20:35:01.765Z,24.97
2022-08-26T20:40:06.610Z,24.97
2022-08-26T20:45:09.821Z,24.92
2022-08-26T20:50:12.522Z,24.81
2022-08-26T20:55:15.109Z,24.73
2022-08-26T21:00:18.481Z,24.65
2022-08-26T21:05:24.543Z,24.68
2022-08-26T21:10:30.528Z,24.53
2022-08-26T21:15:33.414Z,24.44
2022-08-26T21:20:37.400Z,24.41
2022-08-26T21:25:40.637Z,24.35
2022-08-26T21:30:43.461Z,24.15
2022-08-26T21:35:56.190Z,24.04
2022-08-26T21:41:14.274Z,24.25
2022-08-26T21:46:22.366Z,24.23
2022-08-26T21:51:27.971Z,24.28
2022-08-26T21:56:32.261Z,24.31
2022-08-26T22:01:35.167Z,24.28
2022-08-26T22:06:44.475Z,24.22
2022-08-26T22:11:47.554Z,24.16
2022-08-26T22:16:51.071Z,24.09
2022-08-26T22:21:55.189Z,24.02
2022-08-26T22:26:57.696Z,23.97
2022-08-26T22:32:00.508Z,23.86
2022-08-26T22:37:03.443Z,23.83
2022-08-26T22:42:06.015Z,23.72
2022-08-26T22:47:08.510Z,23.43
2022-08-26T22:52:11.051Z,23.66
2022-08-26T22:57:13.661Z,23.65
2022-08-26T23:02:16.311Z,23.56
2022-08-26T23:07:19.227Z,23.55
2022-08-26T23:12:22.219Z,23.50
2022-08-26T23:17:24.819Z,23.36
2022-08-26T23:22:28.468Z,23.22
2022-08-26T23:27:30.888Z,23.18
2022-08-26T23:32:33.528Z,23.09
2022-08-26T23:37:38.934Z,23.00
2022-08-26T23:42:44.524Z,22.82
2022-08-26T23:47:47.658Z,22.83
2022-08-26T23:53:05.885Z,22.94
2022-08-26T23:58:08.447Z,22.98
